Time;durP1;ratioP1;P1;durP2;ratioP2;P2;SDS_P1;SDS_P2;PMS_P1;PMS_P2;Temp;Humidity;BMP_temperature;BMP_pressure;BME280_temperature;BME280_humidity;BME280_pressure;Samples;Min_cycle;Max_cycle;Signal;HPM_P1;HPM_P2
2021/12/23 00:02:13;;;;;;;67.97;30.23;;;;;;;-0.92;60.38;100948.25;4968517;28;96656;-85
2021/12/23 00:04:39;;;;;;;73.30;31.50;;;;;;;-0.79;60.92;100971.75;4951528;28;96692;-87
2021/12/23 00:07:04;;;;;;;63.73;29.53;;;;;;;-0.68;60.15;100968.56;4990562;28;99835;-86
2021/12/23 00:10:02;;;;;;;62.53;28.80;;;;;;;-0.58;60.44;100974.81;4962860;28;97862;-85
2021/12/23 00:12:18;;;;;;;63.73;28.83;;;;;;;-0.44;59.68;100989.69;4977624;28;96950;-87
2021/12/23 00:14:49;;;;;;;59.73;28.63;;;;;;;-0.51;59.84;100974.09;4962107;28;96704;-86
2021/12/23 00:23:22;;;;;;;58.17;26.17;;;;;;;-0.58;59.96;100976.50;4980325;28;98416;-87
2021/12/23 00:25:28;;;;;;;56.20;25.93;;;;;;;-0.76;59.63;100980.41;4971478;28;96916;-87
2021/12/23 00:27:54;;;;;;;54.53;25.00;;;;;;;-0.66;60.07;100980.63;4964410;28;101630;-86
2021/12/23 00:30:20;;;;;;;55.23;26.10;;;;;;;-0.72;59.72;100965.91;4968023;28;101881;-86
2021/12/23 00:32:45;;;;;;;53.77;25.67;;;;;;;-0.76;59.66;100946.03;4971804;28;96967;-86
2021/12/23 00:35:11;;;;;;;49.43;24.40;;;;;;;-0.71;59.75;100980.53;4969232;28;96834;-85
2021/12/23 00:37:41;;;;;;;53.57;24.63;;;;;;;-0.78;60.21;100976.06;4977244;28;101718;-86
2021/12/23 00:40:11;;;;;;;59.43;26.43;;;;;;;-0.80;59.50;100965.72;4966790;28;97871;-86
2021/12/23 00:42:37;;;;;;;58.80;24.73;;;;;;;-0.70;59.34;100953.88;4990835;28;96969;-86
2021/12/23 00:45:05;;;;;;;53.13;24.20;;;;;;;-0.80;59.35;100972.59;4968474;28;96885;-86
2021/12/23 00:47:30;;;;;;;53.27;23.63;;;;;;;-0.88;59.47;100950.91;4974319;28;101298;-84
2021/12/23 00:49:57;;;;;;;52.03;24.83;;;;;;;-0.82;59.17;100962.22;4974156;28;101627;-86
2021/12/23 00:52:29;;;;;;;53.47;24.63;;;;;;;-0.93;59.65;100950.81;4971707;28;96993;-86
2021/12/23 00:54:55;;;;;;;53.10;23.57;;;;;;;-0.85;59.63;100957.00;4988348;28;97195;-89
2021/12/23 00:57:26;;;;;;;53.43;25.73;;;;;;;-1.17;59.45;100909.88;4974875;28;97682;-85
2021/12/23 00:59:53;;;;;;;50.83;24.35;;;;;;;-1.05;59.56;100937.63;4971401;28;101683;-86
2021/12/23 01:02:22;;;;;;;58.07;25.97;;;;;;;-1.11;59.77;100930.63;4964409;28;96598;-86
2021/12/23 01:04:47;;;;;;;56.97;25.87;;;;;;;-0.98;59.56;100958.44;4965527;28;96849;-87
2021/12/23 01:07:13;;;;;;;47.67;23.13;;;;;;;-1.05;59.57;100950.53;4977347;28;97704;-88
2021/12/23 01:09:38;;;;;;;49.10;23.33;;;;;;;-0.85;59.34;100953.56;4961105;28;100275;-87
2021/12/23 01:12:05;;;;;;;51.43;22.47;;;;;;;-0.77;59.14;100957.19;4960925;28;97027;-86
2021/12/23 01:14:41;;;;;;;48.83;22.93;;;;;;;-0.77;58.26;100941.72;4965276;28;96753;-85
2021/12/23 01:17:30;;;;;;;50.13;22.57;;;;;;;-0.88;58.63;100945.75;4973792;28;98461;-85
2021/12/23 01:19:57;;;;;;;53.97;23.07;;;;;;;-1.06;59.66;100939.34;4992178;28;100285;-88
2021/12/23 01:22:23;;;;;;;48.70;23.03;;;;;;;-1.09;59.83;100936.69;4978178;28;96757;-85
2021/12/23 01:24:51;;;;;;;49.77;22.83;;;;;;;-1.03;59.64;100946.28;4964704;28;97077;-85
2021/12/23 01:27:17;;;;;;;51.30;23.10;;;;;;;-1.10;59.68;100947.00;4976446;28;101417;-84
2021/12/23 01:29:42;;;;;;;47.07;23.13;;;;;;;-1.15;59.86;100932.28;4976519;28;101499;-88
2021/12/23 01:32:08;;;;;;;49.00;23.43;;;;;;;-1.10;59.96;100940.13;4964798;28;96696;-85
2021/12/23 01:34:35;;;;;;;49.97;23.27;;;;;;;-1.14;60.05;100930.56;4970866;28;97015;-86
2021/12/23 01:37:05;;;;;;;55.97;23.57;;;;;;;-1.06;59.44;100929.03;4952379;28;101648;-84
2021/12/23 01:39:31;;;;;;;51.23;22.63;;;;;;;-1.07;59.82;100919.56;4960551;28;101406;-86
2021/12/23 01:41:57;;;;;;;53.37;23.23;;;;;;;-1.00;59.36;100921.44;4977536;28;96676;-87
2021/12/23 01:44:23;;;;;;;48.80;22.67;;;;;;;-0.95;58.88;100908.66;4969788;28;96989;-86
2021/12/23 01:46:48;;;;;;;45.30;20.47;;;;;;;-1.14;59.23;100903.09;4976751;28;98018;-87
2021/12/23 01:49:14;;;;;;;45.87;21.10;;;;;;;-0.97;58.98;100895.72;4960144;28;100790;-84
2021/12/23 01:51:39;;;;;;;45.00;21.93;;;;;;;-0.93;58.41;100896.69;4948082;28;97240;-85
2021/12/23 01:54:05;;;;;;;45.10;20.97;;;;;;;-0.99;58.72;100896.53;4970118;28;97061;-88
2021/12/23 01:56:31;;;;;;;46.13;22.10;;;;;;;-1.08;58.80;100865.41;4969624;28;101002;-87
2021/12/23 01:58:57;;;;;;;50.60;22.60;;;;;;;-1.04;58.68;100870.69;4963596;28;101471;-87
2021/12/23 02:01:23;;;;;;;48.50;21.83;;;;;;;-1.12;58.89;100848.16;4975275;28;96962;-86
2021/12/23 02:03:49;;;;;;;49.60;21.67;;;;;;;-0.93;58.49;100873.50;4963703;28;96665;-86
2021/12/23 02:06:15;;;;;;;50.10;22.40;;;;;;;-1.25;58.77;100821.22;4976582;28;98548;-86
2021/12/23 02:08:40;;;;;;;48.73;21.57;;;;;;;-1.22;59.46;100849.63;4944179;28;101917;-86
2021/12/23 02:11:09;;;;;;;53.50;23.73;;;;;;;-1.18;59.32;100862.63;4969217;28;96684;-86
2021/12/23 02:13:36;;;;;;;53.70;24.50;;;;;;;-1.21;59.14;100852.25;4970958;28;97086;-86
2021/12/23 02:16:03;;;;;;;50.77;22.20;;;;;;;-1.32;59.19;100832.25;4968509;28;101630;-86
2021/12/23 02:18:29;;;;;;;51.17;22.83;;;;;;;-1.35;60.00;100848.50;4994172;28;97873;-86
2021/12/23 02:20:56;;;;;;;56.13;25.93;;;;;;;-1.32;59.36;100837.41;4959560;28;97112;-85
2021/12/23 02:23:22;;;;;;;52.77;24.43;;;;;;;-1.44;59.97;100815.69;4963039;28;96987;-86
2021/12/23 02:25:49;;;;;;;54.73;24.40;;;;;;;-1.53;59.84;100800.03;4962420;28;100506;-87
2021/12/23 02:28:18;;;;;;;55.37;25.73;;;;;;;-1.46;60.18;100804.47;4958681;28;100868;-85
2021/12/23 02:30:45;;;;;;;55.33;24.63;;;;;;;-1.22;59.14;100824.78;4969007;28;96926;-86
2021/12/23 02:33:11;;;;;;;52.27;23.80;;;;;;;-1.28;59.60;100811.75;4993828;28;96819;-85
2021/12/23 02:35:37;;;;;;;55.63;24.67;;;;;;;-1.24;59.17;100823.84;4960449;28;101210;-87
2021/12/23 02:38:05;;;;;;;52.30;23.73;;;;;;;-1.38;59.23;100797.78;4979709;28;97424;-87
2021/12/23 02:40:33;;;;;;;58.83;24.93;;;;;;;-1.38;59.24;100810.66;4972866;28;97103;-87
2021/12/23 02:43:13;;;;;;;51.93;22.73;;;;;;;-1.47;59.20;100786.44;4984440;28;96991;-89
2021/12/23 02:45:39;;;;;;;49.33;22.37;;;;;;;-1.60;59.99;100777.53;4963381;28;101700;-86
2021/12/23 02:48:13;;;;;;;53.30;23.40;;;;;;;-1.37;59.55;100808.97;4974629;28;98180;-85
2021/12/23 02:50:40;;;;;;;58.03;25.10;;;;;;;-1.47;60.26;100792.44;4975116;28;97155;-86
2021/12/23 02:53:05;;;;;;;50.60;23.70;;;;;;;-1.50;59.89;100792.38;4974748;28;96969;-86
2021/12/23 02:55:31;;;;;;;46.20;22.30;;;;;;;-1.51;60.12;100789.75;4961357;28;101347;-86
2021/12/23 02:57:56;;;;;;;41.10;19.23;;;;;;;-1.43;59.20;100781.34;4974857;28;97956;-86
2021/12/23 03:00:22;;;;;;;49.83;21.30;;;;;;;-1.69;59.85;100762.75;4969561;28;97132;-85
2021/12/23 03:02:47;;;;;;;49.10;21.10;;;;;;;-1.58;59.62;100780.16;4938836;28;97189;-85
2021/12/23 03:05:13;;;;;;;53.20;21.80;;;;;;;-1.50;59.91;100778.63;4955155;28;100794;-86
2021/12/23 03:07:38;;;;;;;54.83;22.50;;;;;;;-1.65;59.76;100759.44;4946879;28;100663;-87
2021/12/23 03:10:07;;;;;;;52.37;23.27;;;;;;;-1.56;60.18;100769.06;4971714;28;97130;-87
2021/12/23 03:12:32;;;;;;;52.10;23.07;;;;;;;-1.55;59.89;100760.50;4955148;28;97265;-85
2021/12/23 03:14:59;;;;;;;47.63;21.07;;;;;;;-1.51;60.04;100762.31;4970207;28;100988;-87
2021/12/23 03:17:25;;;;;;;39.20;20.57;;;;;;;-1.55;58.98;100733.88;4967935;28;101028;-86
2021/12/23 03:19:50;;;;;;;45.00;20.10;;;;;;;-1.50;59.48;100725.41;4973373;28;97300;-86
2021/12/23 03:22:16;;;;;;;46.20;20.23;;;;;;;-1.47;59.09;100743.50;4989963;28;97271;-86
2021/12/23 03:24:42;;;;;;;43.47;20.43;;;;;;;-1.53;59.48;100738.22;4972025;28;101687;-86
2021/12/23 03:27:07;;;;;;;43.67;20.47;;;;;;;-1.58;59.57;100738.97;4945812;28;101520;-86
2021/12/23 03:29:33;;;;;;;48.83;20.77;;;;;;;-1.55;59.89;100734.75;4967575;28;97000;-86
2021/12/23 03:31:59;;;;;;;43.40;20.20;;;;;;;-1.51;58.90;100717.66;4967454;28;96759;-86
2021/12/23 03:34:24;;;;;;;45.67;19.73;;;;;;;-1.54;59.35;100726.22;4979481;28;98421;-85
2021/12/23 03:36:50;;;;;;;44.17;20.97;;;;;;;-1.59;59.55;100732.94;4906241;28;1269454;-85
2021/12/23 03:39:16;;;;;;;41.70;19.37;;;;;;;-1.60;59.69;100700.28;4954108;28;97107;-86
2021/12/23 03:41:41;;;;;;;39.47;19.43;;;;;;;-1.45;59.14;100715.22;4967848;28;96922;-85
2021/12/23 03:44:07;;;;;;;39.37;18.47;;;;;;;-1.60;59.17;100690.00;4984052;28;97583;-85
2021/12/23 03:46:32;;;;;;;39.33;18.93;;;;;;;-1.54;59.78;100713.34;4983650;28;97965;-86
2021/12/23 03:48:58;;;;;;;40.13;18.10;;;;;;;-1.62;59.27;100689.97;4976361;28;96830;-87
2021/12/23 03:51:24;;;;;;;37.50;17.93;;;;;;;-1.39;59.21;100707.63;4951622;28;97278;-86
2021/12/23 03:53:49;;;;;;;37.93;18.73;;;;;;;-1.51;59.25;100713.41;4974642;28;101277;-87
2021/12/23 03:56:18;;;;;;;36.43;17.67;;;;;;;-1.60;59.58;100690.91;4975693;28;97888;-85
2021/12/23 03:58:44;;;;;;;29.37;15.77;;;;;;;-1.51;59.39;100687.66;4979049;28;96715;-85
2021/12/23 04:01:10;;;;;;;34.07;16.27;;;;;;;-1.59;59.42;100681.47;4984824;28;96948;-87
2021/12/23 04:03:35;;;;;;;34.43;17.00;;;;;;;-1.56;59.16;100701.25;4989165;28;98197;-86
2021/12/23 04:06:01;;;;;;;33.17;15.67;;;;;;;-1.47;58.82;100693.72;4969474;28;97973;-86
2021/12/23 04:08:26;;;;;;;25.87;13.00;;;;;;;-1.35;58.95;100693.09;4975669;28;96787;-85
2021/12/23 04:10:52;;;;;;;29.33;14.43;;;;;;;-1.40;58.66;100674.97;4979518;28;99907;-86
2021/12/23 04:13:17;;;;;;;32.53;15.60;;;;;;;-1.40;58.99;100659.50;4974069;28;98702;-86
2021/12/23 04:15:43;;;;;;;28.73;14.27;;;;;;;-1.40;59.09;100664.66;4969149;28;101124;-86
2021/12/23 04:18:08;;;;;;;30.17;14.50;;;;;;;-1.43;59.07;100672.34;4961201;28;96758;-86
2021/12/23 04:20:45;;;;;;;31.70;15.07;;;;;;;-1.56;59.72;100662.63;4953199;28;97006;-87
2021/12/23 04:23:11;;;;;;;31.03;14.37;;;;;;;-1.52;59.17;100662.72;4960348;28;96945;-85
2021/12/23 04:25:37;;;;;;;30.23;14.60;;;;;;;-1.43;59.12;100657.75;4942442;28;101246;-86
2021/12/23 04:28:03;;;;;;;28.93;13.90;;;;;;;-1.56;58.67;100621.44;4992521;28;96668;-86
2021/12/23 04:30:29;;;;;;;30.10;14.57;;;;;;;-1.45;58.52;100640.56;4974433;28;96746;-86
2021/12/23 04:32:55;;;;;;;28.70;14.07;;;;;;;-1.57;58.52;100614.53;4961696;28;101483;-85
2021/12/23 04:35:21;;;;;;;32.03;14.00;;;;;;;-1.58;59.04;100626.53;4978198;28;101514;-85
2021/12/23 04:37:46;;;;;;;32.67;16.30;;;;;;;-1.43;58.80;100632.00;4961067;28;97054;-85
2021/12/23 04:40:13;;;;;;;29.50;14.67;;;;;;;-1.54;58.86;100623.22;4968699;28;97021;-86
2021/12/23 04:42:39;;;;;;;28.70;15.07;;;;;;;-1.48;58.54;100633.63;4980775;28;97647;-86
2021/12/23 04:45:06;;;;;;;31.30;16.23;;;;;;;-1.54;59.42;100628.38;4943859;28;101648;-89
2021/12/23 04:47:31;;;;;;;27.63;14.30;;;;;;;-1.54;58.99;100612.91;4975707;28;97160;-87
2021/12/23 04:49:57;;;;;;;23.53;12.70;;;;;;;-1.53;58.56;100613.78;4978042;28;96791;-86
2021/12/23 04:52:22;;;;;;;27.07;13.40;;;;;;;-1.50;58.65;100608.69;4955952;28;101636;-86
2021/12/23 04:54:48;;;;;;;23.77;14.00;;;;;;;-1.53;59.10;100599.19;4986642;28;100991;-86
2021/12/23 04:57:13;;;;;;;34.23;14.33;;;;;;;-1.41;58.37;100603.72;4977259;28;96977;-86
2021/12/23 04:59:39;;;;;;;24.53;13.57;;;;;;;-1.43;58.50;100608.81;4966747;28;97320;-85
2021/12/23 05:02:05;;;;;;;25.90;14.00;;;;;;;-1.51;59.04;100588.91;4974219;28;101299;-86
2021/12/23 05:04:30;;;;;;;30.83;14.70;;;;;;;-1.49;58.26;100580.38;4959022;28;101422;-88
2021/12/23 05:06:56;;;;;;;29.40;14.40;;;;;;;-1.44;58.44;100577.91;4971229;28;96981;-86
2021/12/23 05:09:21;;;;;;;30.87;14.47;;;;;;;-1.37;58.65;100582.31;4968839;28;97145;-85
2021/12/23 05:11:47;;;;;;;25.80;13.33;;;;;;;-1.45;58.04;100582.19;4964991;28;98468;-86
2021/12/23 05:14:12;;;;;;;31.30;14.17;;;;;;;-1.50;58.96;100582.94;4965945;28;100549;-85
2021/12/23 05:16:38;;;;;;;29.77;15.07;;;;;;;-1.52;58.79;100577.75;4976014;28;96710;-86
2021/12/23 05:19:04;;;;;;;29.13;13.97;;;;;;;-1.56;58.44;100563.09;4950226;28;96859;-85
2021/12/23 05:21:30;;;;;;;28.70;13.57;;;;;;;-1.59;59.53;100565.59;4970682;28;98528;-87
2021/12/23 05:23:55;;;;;;;30.67;14.57;;;;;;;-1.51;58.87;100560.56;4969237;28;101352;-85
2021/12/23 05:26:21;;;;;;;28.27;12.73;;;;;;;-1.61;59.25;100534.66;4960305;28;97015;-86
2021/12/23 05:28:47;;;;;;;27.97;14.30;;;;;;;-1.60;59.50;100551.88;4976224;28;97067;-87
2021/12/23 05:31:12;;;;;;;37.83;17.03;;;;;;;-1.60;59.60;100558.69;4959530;28;101312;-86
2021/12/23 05:33:38;;;;;;;33.00;14.90;;;;;;;-1.62;59.67;100557.81;4965985;28;101234;-85
2021/12/23 05:36:04;;;;;;;25.20;12.57;;;;;;;-1.49;59.01;100549.47;4969976;28;96754;-86
2021/12/23 05:38:29;;;;;;;27.80;13.57;;;;;;;-1.50;59.23;100549.47;4951332;28;97039;-85
2021/12/23 05:40:55;;;;;;;22.93;11.17;;;;;;;-1.34;58.78;100533.44;4960057;28;101228;-85
2021/12/23 05:43:21;;;;;;;20.90;10.47;;;;;;;-1.30;58.66;100537.81;4962957;28;100872;-85
2021/12/23 05:45:46;;;;;;;22.57;9.00;;;;;;;-1.39;58.82;100541.09;4943851;28;96594;-86
2021/12/23 05:48:12;;;;;;;15.83;8.83;;;;;;;-1.50;59.08;100540.03;5001791;28;96845;-87
2021/12/23 05:50:37;;;;;;;16.57;8.77;;;;;;;-1.51;59.29;100524.53;4972887;28;98605;-86
2021/12/23 05:53:03;;;;;;;19.40;9.10;;;;;;;-1.74;60.19;100506.97;4957498;28;101214;-86
2021/12/23 05:55:29;;;;;;;16.30;9.73;;;;;;;-1.65;59.82;100517.44;4961292;28;96635;-86
2021/12/23 05:57:54;;;;;;;17.07;8.47;;;;;;;-1.61;60.65;100513.22;4957519;28;97217;-86
2021/12/23 06:00:23;;;;;;;16.23;9.00;;;;;;;-1.52;60.29;100520.22;4988892;28;101531;-86
2021/12/23 06:02:49;;;;;;;16.93;9.73;;;;;;;-1.92;60.54;100450.88;4968104;28;101566;-86
2021/12/23 06:05:16;;;;;;;16.73;9.23;;;;;;;-1.73;60.25;100464.94;4959601;28;97164;-85
2021/12/23 06:07:42;;;;;;;17.20;8.83;;;;;;;-1.60;60.98;100490.06;4957400;28;97082;-85
2021/12/23 06:10:08;;;;;;;18.83;9.80;;;;;;;-1.42;60.67;100497.25;4970155;28;101379;-87
2021/12/23 06:12:34;;;;;;;17.13;9.40;;;;;;;-1.57;60.82;100471.25;4967231;28;98573;-86
2021/12/23 06:15:00;;;;;;;18.03;10.27;;;;;;;-1.51;61.49;100499.69;4977003;28;97240;-86
2021/12/23 06:17:25;;;;;;;20.53;10.37;;;;;;;-1.65;61.22;100477.97;4960607;28;97199;-85
2021/12/23 06:19:51;;;;;;;17.53;10.17;;;;;;;-1.62;61.43;100478.88;4976336;28;97948;-86
2021/12/23 06:22:18;;;;;;;17.33;10.70;;;;;;;-1.50;61.31;100479.94;4976162;28;101536;-85
2021/12/23 06:24:46;;;;;;;18.03;10.53;;;;;;;-1.53;61.76;100495.34;4972570;28;96831;-85
2021/12/23 06:27:12;;;;;;;18.30;10.43;;;;;;;-1.52;61.78;100497.06;4951441;28;96813;-85
2021/12/23 06:29:38;;;;;;;18.47;9.73;;;;;;;-1.45;61.37;100483.47;4975172;28;101180;-86
2021/12/23 06:32:04;;;;;;;19.20;10.30;;;;;;;-1.49;61.60;100489.38;4965542;28;101295;-85
2021/12/23 06:34:30;;;;;;;15.73;10.03;;;;;;;-1.56;61.72;100482.41;4977631;28;97885;-86
2021/12/23 06:36:55;;;;;;;18.33;11.50;;;;;;;-1.60;61.95;100481.47;4976537;28;97061;-85
2021/12/23 06:39:21;;;;;;;18.70;10.43;;;;;;;-1.50;61.75;100487.66;4955414;28;101752;-86
2021/12/23 06:41:46;;;;;;;22.33;11.80;;;;;;;-1.50;61.92;100480.78;4967367;28;101374;-86
2021/12/23 06:44:12;;;;;;;20.77;12.90;;;;;;;-1.63;62.25;100481.41;4970393;28;97135;-86
2021/12/23 06:46:38;;;;;;;21.37;12.30;;;;;;;-1.63;62.03;100477.16;4968152;28;96962;-86
2021/12/23 06:49:14;;;;;;;20.77;11.90;;;;;;;-1.52;62.24;100476.47;4977350;28;98262;-86
2021/12/23 06:51:40;;;;;;;22.53;12.43;;;;;;;-1.61;62.39;100472.00;4976150;28;101261;-86
2021/12/23 06:54:06;;;;;;;24.60;13.07;;;;;;;-1.54;62.20;100480.69;4963266;28;97214;-86
2021/12/23 06:56:31;;;;;;;24.57;12.67;;;;;;;-1.52;62.58;100474.75;4958970;28;96800;-86
2021/12/23 06:58:57;;;;;;;23.60;13.43;;;;;;;-1.51;62.25;100470.47;4956784;28;100088;-85
2021/12/23 07:01:22;;;;;;;24.63;13.53;;;;;;;-1.58;62.48;100461.78;4968765;28;101135;-86
2021/12/23 07:06:21;;;;;;;23.97;12.07;;;;;;;-1.64;62.67;100457.38;4963670;28;96849;-86
2021/12/23 07:08:47;;;;;;;22.97;13.43;;;;;;;-1.58;63.03;100456.63;4959552;28;101587;-86
2021/12/23 07:11:12;;;;;;;20.77;13.23;;;;;;;-1.44;62.06;100452.56;4955886;28;101403;-87
2021/12/23 07:13:38;;;;;;;23.27;14.20;;;;;;;-1.40;61.86;100440.59;4976298;28;96734;-86
2021/12/23 07:16:04;;;;;;;24.47;13.80;;;;;;;-1.44;62.80;100444.84;4976346;28;96887;-86
2021/12/23 07:18:29;;;;;;;24.40;13.27;;;;;;;-1.43;62.54;100444.00;4962869;28;101521;-85
2021/12/23 07:20:55;;;;;;;22.77;13.87;;;;;;;-1.37;62.27;100427.78;4963114;28;97829;-84
2021/12/23 07:23:21;;;;;;;25.97;14.87;;;;;;;-1.33;62.41;100439.03;4985767;28;96897;-87
2021/12/23 07:25:46;;;;;;;23.87;13.47;;;;;;;-1.21;62.42;100441.78;4953394;28;97080;-86
2021/12/23 07:28:12;;;;;;;22.77;14.07;;;;;;;-1.21;62.13;100439.22;4971905;28;98082;-87
2021/12/23 07:30:37;;;;;;;22.73;13.50;;;;;;;-1.30;62.54;100434.78;4965636;28;100174;-85
2021/12/23 07:33:03;;;;;;;26.40;14.37;;;;;;;-1.33;62.57;100427.00;5002092;28;97012;-85
2021/12/23 07:35:29;;;;;;;23.80;13.93;;;;;;;-1.23;62.39;100431.44;4961667;28;97016;-85
2021/12/23 07:37:54;;;;;;;22.73;14.43;;;;;;;-1.22;62.13;100433.19;4945630;28;100998;-86
2021/12/23 07:40:20;;;;;;;24.20;14.03;;;;;;;-1.16;62.65;100414.41;4954955;28;100988;-85
2021/12/23 07:42:57;;;;;;;26.83;14.17;;;;;;;-0.96;62.12;100412.06;4988731;28;97261;-86
2021/12/23 07:45:28;;;;;;;23.83;14.13;;;;;;;-1.17;62.35;100400.63;4945909;28;96955;-86
2021/12/23 07:47:54;;;;;;;27.10;15.73;;;;;;;-1.18;62.75;100385.16;4984719;28;97703;-85
2021/12/23 07:50:20;;;;;;;33.50;17.83;;;;;;;-1.16;61.93;100388.63;4989229;28;97753;-85
2021/12/23 07:52:46;;;;;;;25.80;15.00;;;;;;;-1.16;62.21;100411.81;4956579;28;96973;-85
2021/12/23 07:55:13;;;;;;;25.03;15.33;;;;;;;-1.05;62.38;100406.78;4979601;28;97011;-88
2021/12/23 07:57:39;;;;;;;24.63;14.73;;;;;;;-1.06;62.06;100403.34;4952238;28;101723;-85
2021/12/23 08:00:06;;;;;;;23.17;14.13;;;;;;;-0.97;62.66;100413.78;4971523;28;101515;-91
2021/12/23 08:02:39;;;;;;;22.60;13.73;;;;;;;-1.00;62.21;100387.13;4986022;28;96695;-90
2021/12/23 08:05:05;;;;;;;22.53;13.27;;;;;;;-0.98;62.18;100382.88;4969726;28;97386;-89
2021/12/23 08:07:31;;;;;;;24.47;14.37;;;;;;;-0.94;62.40;100397.50;4970255;28;98048;-88
2021/12/23 08:09:56;;;;;;;26.57;14.80;;;;;;;-0.88;61.69;100405.31;4973541;28;97779;-92
2021/12/23 08:12:22;;;;;;;19.83;12.50;;;;;;;-0.85;61.91;100397.63;4971597;28;97121;-90
2021/12/23 08:14:47;;;;;;;24.13;14.67;;;;;;;-0.84;61.40;100395.91;4952912;28;97306;-89
2021/12/23 08:17:13;;;;;;;23.77;13.70;;;;;;;-0.84;62.09;100399.38;4961892;28;101149;-88
2021/12/23 08:19:38;;;;;;;23.87;13.07;;;;;;;-0.79;61.67;100383.97;4972104;28;102337;-90
2021/12/23 08:22:04;;;;;;;24.03;12.97;;;;;;;-0.77;61.33;100371.97;4990016;28;97280;-89
2021/12/23 08:24:29;;;;;;;25.50;13.03;;;;;;;-0.80;61.46;100359.91;4977212;28;97106;-91
2021/12/23 08:26:55;;;;;;;32.60;14.43;;;;;;;-0.88;61.43;100363.22;4977826;28;98275;-89
2021/12/23 08:29:21;;;;;;;22.40;12.80;;;;;;;-0.84;62.23;100341.78;4981738;28;97282;-92
2021/12/23 08:31:53;;;;;;;29.93;15.70;;;;;;;-0.71;62.03;100343.69;4970324;28;98593;-89
2021/12/23 08:34:20;;;;;;;26.20;14.63;;;;;;;-0.77;62.01;100336.75;4943616;28;96871;-90
2021/12/23 08:36:46;;;;;;;26.23;14.23;;;;;;;-0.70;62.02;100340.25;4954767;28;100621;-88
2021/12/23 08:39:12;;;;;;;24.10;14.40;;;;;;;-0.80;61.60;100348.72;4966241;28;97827;-90
2021/12/23 08:41:37;;;;;;;30.33;14.67;;;;;;;-0.89;61.82;100321.13;4960183;28;97024;-91
2021/12/23 08:44:03;;;;;;;24.77;14.00;;;;;;;-0.70;61.83;100348.88;4953943;28;96882;-92
2021/12/23 08:46:29;;;;;;;26.10;14.63;;;;;;;-0.64;61.51;100344.63;4979848;28;98432;-89
2021/12/23 08:48:54;;;;;;;25.93;14.10;;;;;;;-0.75;61.52;100317.00;4976442;28;98077;-91
2021/12/23 08:51:20;;;;;;;24.90;13.80;;;;;;;-0.58;60.88;100337.84;4980005;28;97034;-92
2021/12/23 08:53:45;;;;;;;25.47;13.50;;;;;;;-0.53;60.98;100325.84;4972995;28;98583;-80
2021/12/23 08:56:11;;;;;;;23.77;14.63;;;;;;;-0.64;61.30;100316.25;4974120;28;101586;-83
2021/12/23 08:58:37;;;;;;;33.20;19.60;;;;;;;-0.48;60.86;100320.75;4957563;28;101473;-83
2021/12/23 09:01:04;;;;;;;31.57;17.03;;;;;;;-0.54;61.27;100318.97;4978203;28;97115;-82
2021/12/23 09:03:32;;;;;;;24.67;14.60;;;;;;;-0.65;61.65;100289.59;4991262;28;97183;-88
2021/12/23 09:05:58;;;;;;;23.23;14.23;;;;;;;-0.56;61.58;100294.84;4977140;28;101539;-88
2021/12/23 09:08:25;;;;;;;27.63;15.40;;;;;;;-0.50;61.43;100307.81;4959456;28;101523;-87
2021/12/23 09:10:55;;;;;;;31.17;15.20;;;;;;;-0.53;61.56;100301.75;4975548;28;96851;-89
2021/12/23 09:13:21;;;;;;;32.00;17.33;;;;;;;-0.49;61.54;100299.25;4946144;28;99696;-87
2021/12/23 09:15:47;;;;;;;31.17;16.10;;;;;;;-0.38;61.25;100295.91;4958792;28;101692;-90
2021/12/23 09:18:13;;;;;;;25.93;15.67;;;;;;;-0.50;61.76;100288.91;4963640;28;101506;-88
2021/12/23 09:20:38;;;;;;;28.40;15.50;;;;;;;-0.50;61.92;100283.75;4974821;28;96700;-88
2021/12/23 09:23:07;;;;;;;32.80;16.83;;;;;;;-0.50;61.38;100282.03;4960563;28;96998;-88
2021/12/23 09:25:33;;;;;;;27.40;15.53;;;;;;;-0.51;61.46;100264.84;4968900;28;100472;-88
2021/12/23 09:33:22;;;;;;;24.53;14.90;;;;;;;-0.41;61.33;100263.19;4965498;28;96792;-89
2021/12/23 09:35:48;;;;;;;31.30;15.73;;;;;;;-0.57;61.37;100227.81;4960595;28;101793;-88
2021/12/23 09:38:14;;;;;;;32.17;18.00;;;;;;;-0.34;61.09;100249.53;4973292;28;100644;-91
2021/12/23 09:40:40;;;;;;;30.10;17.10;;;;;;;-0.40;61.12;100244.31;4977949;28;97004;-88
2021/12/23 09:43:08;;;;;;;33.17;17.67;;;;;;;-0.39;61.07;100237.44;4960186;28;97300;-90
2021/12/23 09:45:34;;;;;;;31.80;16.37;;;;;;;-0.51;61.13;100210.69;4964245;28;101370;-90
2021/12/23 09:48:02;;;;;;;40.23;19.03;;;;;;;-0.54;61.23;100202.06;4965919;28;101662;-90
2021/12/23 09:50:30;;;;;;;29.83;16.83;;;;;;;-0.34;61.63;100231.47;4980476;28;96791;-91
2021/12/23 09:52:56;;;;;;;34.50;18.47;;;;;;;-0.20;60.86;100234.19;4995481;28;96757;-88
2021/12/23 09:55:27;;;;;;;35.93;18.80;;;;;;;-0.27;61.23;100206.56;4978418;28;101538;-88
2021/12/23 09:57:56;;;;;;;29.27;17.60;;;;;;;-0.24;60.87;100204.03;4979924;28;101125;-88
2021/12/23 10:00:25;;;;;;;36.80;20.57;;;;;;;-0.55;61.10;100120.41;4976907;28;96706;-88
2021/12/23 10:02:51;;;;;;;44.13;24.50;;;;;;;-0.18;61.15;100198.91;4958329;28;97003;-91
2021/12/23 10:05:20;;;;;;;38.63;20.40;;;;;;;-0.33;61.16;100155.78;4979006;28;101690;-92
2021/12/23 10:07:47;;;;;;;37.83;21.57;;;;;;;-0.15;61.54;100185.16;4975113;28;97929;-88
2021/12/23 10:10:20;;;;;;;46.10;25.77;;;;;;;-0.08;60.66;100171.47;4976931;28;97106;-88
2021/12/23 10:13:19;;;;;;;48.37;25.50;;;;;;;-0.14;61.54;100185.19;4953571;28;96708;-88
2021/12/23 10:30:13;;;;;;;32.30;17.23;;;;;;;0.17;60.20;100146.66;4985125;28;101458;-87
2021/12/23 10:38:35;;;;;;;41.37;21.97;;;;;;;0.13;60.40;100119.13;4970864;28;100412;-87
2021/12/23 10:41:14;;;;;;;37.27;19.17;;;;;;;0.07;61.11;100114.78;4971197;28;97441;-87
2021/12/23 10:43:42;;;;;;;36.43;19.13;;;;;;;0.23;60.79;100105.38;4946266;28;97049;-88
2021/12/23 10:46:15;;;;;;;35.97;20.33;;;;;;;0.10;60.59;100085.53;4976025;28;97552;-90
2021/12/23 10:49:11;;;;;;;35.90;20.23;;;;;;;0.18;60.28;100095.03;4977006;28;101394;-90
2021/12/23 10:52:02;;;;;;;31.53;17.03;;;;;;;0.21;60.60;100089.03;4989022;28;101120;-88
2021/12/23 11:00:19;;;;;;;43.23;21.73;;;;;;;0.18;60.40;100068.38;4974472;28;100424;-92
2021/12/23 11:03:10;;;;;;;50.73;23.47;;;;;;;0.32;59.90;100076.16;4967055;28;101462;-90
2021/12/23 11:05:43;;;;;;;37.27;20.10;;;;;;;0.28;59.95;100064.94;4975613;28;97676;-85
2021/12/23 11:27:40;;;;;;;52.57;23.60;;;;;;;0.48;60.05;100002.19;4970566;28;97388;-86
2021/12/23 11:41:15;;;;;;;52.17;24.37;;;;;;;0.58;59.93;99980.66;4967351;28;97489;-85
2021/12/23 11:43:54;;;;;;;69.77;29.37;;;;;;;0.60;59.89;99981.53;4966654;28;98716;-92
2021/12/23 11:46:29;;;;;;;46.03;23.80;;;;;;;0.58;60.29;99976.38;4983185;28;98446;-93
2021/12/23 11:48:56;;;;;;;39.70;20.50;;;;;;;0.63;60.11;99959.13;4980050;28;97272;-92
2021/12/23 11:54:40;;;;;;;34.07;18.57;;;;;;;0.77;59.18;99955.69;4956711;28;99578;-86
2021/12/23 11:57:09;;;;;;;37.83;19.43;;;;;;;0.72;59.28;99947.94;4956261;28;101573;-92
2021/12/23 11:59:37;;;;;;;35.20;19.40;;;;;;;0.74;59.55;99933.31;4948520;28;97278;-90
2021/12/23 12:02:15;;;;;;;34.83;19.47;;;;;;;0.78;59.55;99927.25;4985745;28;96716;-89
2021/12/23 12:04:41;;;;;;;32.90;19.60;;;;;;;0.86;59.19;99927.28;4957358;28;101336;-89
2021/12/23 12:07:17;;;;;;;38.97;20.60;;;;;;;1.03;58.97;99915.19;4974466;28;101410;-90
2021/12/23 12:10:04;;;;;;;43.10;22.00;;;;;;;0.86;58.97;99878.16;4965253;28;97199;-88
2021/12/23 12:12:31;;;;;;;42.47;21.10;;;;;;;0.86;58.81;99879.03;4966399;28;98674;-88
2021/12/23 12:14:57;;;;;;;38.53;19.93;;;;;;;0.97;58.40;99896.25;4971251;28;102447;-89
2021/12/23 12:17:23;;;;;;;38.47;21.40;;;;;;;1.05;59.58;99899.69;4960874;28;101544;-89
2021/12/23 12:19:58;;;;;;;35.67;19.50;;;;;;;0.93;58.88;99882.44;4988884;28;96810;-88
2021/12/23 12:22:59;;;;;;;33.70;18.63;;;;;;;1.13;58.71;99901.38;4983148;28;96721;-89
2021/12/23 12:25:25;;;;;;;36.33;18.67;;;;;;;1.12;58.38;99901.38;4980274;28;98180;-88